sensor_id;sensor_type;location;lat;lon;timestamp;pressure;altitude;pressure_sealevel;temperature;humidity
141;BME280;65;48.778;9.160;2023-04-27T00:02:11;98620.50;;;8.20;76.32
141;BME280;65;48.778;9.160;2023-04-27T00:04:57;98627.31;;;8.24;74.83
141;BME280;65;48.778;9.160;2023-04-27T00:07:43;98618.72;;;8.20;75.15
141;BME280;65;48.778;9.160;2023-04-27T00:10:29;98617.06;;;8.18;73.61
141;BME280;65;48.778;9.160;2023-04-27T00:13:15;98614.59;;;8.15;73.23
141;BME280;65;48.778;9.160;2023-04-27T00:16:00;98609.53;;;8.10;74.68
141;BME280;65;48.778;9.160;2023-04-27T00:18:48;98612.22;;;8.09;75.75
141;BME280;65;48.778;9.160;2023-04-27T00:21:33;98610.50;;;8.08;78.87
141;BME280;65;48.778;9.160;2023-04-27T00:24:19;98607.16;;;8.04;79.17
141;BME280;65;48.778;9.160;2023-04-27T00:27:05;98606.31;;;8.04;80.19
141;BME280;65;48.778;9.160;2023-04-27T00:29:51;98605.53;;;8.02;80.24
141;BME280;65;48.778;9.160;2023-04-27T00:32:36;98606.44;;;8.01;81.13
141;BME280;65;48.778;9.160;2023-04-27T00:35:22;98602.19;;;7.98;81.22
141;BME280;65;48.778;9.160;2023-04-27T00:38:08;98610.06;;;7.98;80.88
141;BME280;65;48.778;9.160;2023-04-27T00:41:05;98595.22;;;7.97;79.58
141;BME280;65;48.778;9.160;2023-04-27T00:43:51;98595.13;;;7.99;81.50
141;BME280;65;48.778;9.160;2023-04-27T00:46:37;98585.59;;;7.96;80.64
141;BME280;65;48.778;9.160;2023-04-27T00:49:23;98583.91;;;7.95;80.73
141;BME280;65;48.778;9.160;2023-04-27T00:52:10;98583.91;;;7.95;80.76
141;BME280;65;48.778;9.160;2023-04-27T00:54:56;98588.31;;;7.94;80.77
141;BME280;65;48.778;9.160;2023-04-27T00:57:42;98587.31;;;7.97;81.11
141;BME280;65;48.778;9.160;2023-04-27T01:00:27;98590.88;;;7.96;80.74
141;BME280;65;48.778;9.160;2023-04-27T01:03:13;98591.78;;;7.95;83.35
141;BME280;65;48.778;9.160;2023-04-27T01:05:59;98590.22;;;7.91;80.97
141;BME280;65;48.778;9.160;2023-04-27T01:08:46;98592.94;;;7.89;81.49
141;BME280;65;48.778;9.160;2023-04-27T01:11:32;98587.75;;;7.88;82.01
141;BME280;65;48.778;9.160;2023-04-27T01:14:17;98592.09;;;7.89;80.50
141;BME280;65;48.778;9.160;2023-04-27T01:17:03;98592.00;;;7.90;80.65
141;BME280;65;48.778;9.160;2023-04-27T01:19:49;98591.00;;;7.93;81.47
141;BME280;65;48.778;9.160;2023-04-27T01:22:36;98600.25;;;8.02;82.51
141;BME280;65;48.778;9.160;2023-04-27T01:25:22;98593.22;;;8.02;83.39
141;BME280;65;48.778;9.160;2023-04-27T01:28:07;98604.47;;;8.06;82.07
141;BME280;65;48.778;9.160;2023-04-27T01:30:53;98599.97;;;8.08;82.72
141;BME280;65;48.778;9.160;2023-04-27T01:33:40;98598.63;;;7.99;83.64
141;BME280;65;48.778;9.160;2023-04-27T01:36:26;98598.97;;;7.91;84.19
141;BME280;65;48.778;9.160;2023-04-27T01:39:12;98590.59;;;7.83;84.84
141;BME280;65;48.778;9.160;2023-04-27T01:41:57;98592.66;;;7.77;85.71
141;BME280;65;48.778;9.160;2023-04-27T01:44:43;98591.28;;;7.68;86.28
141;BME280;65;48.778;9.160;2023-04-27T01:47:29;98589.84;;;7.61;86.09
141;BME280;65;48.778;9.160;2023-04-27T01:50:14;98594.53;;;7.54;86.15
141;BME280;65;48.778;9.160;2023-04-27T01:53:00;98591.22;;;7.49;86.75
141;BME280;65;48.778;9.160;2023-04-27T01:55:46;98597.63;;;7.44;87.57
141;BME280;65;48.778;9.160;2023-04-27T01:58:32;98602.16;;;7.40;89.19
141;BME280;65;48.778;9.160;2023-04-27T02:01:17;98603.94;;;7.40;87.46
141;BME280;65;48.778;9.160;2023-04-27T02:04:03;98606.41;;;7.43;89.44
141;BME280;65;48.778;9.160;2023-04-27T02:06:49;98602.09;;;7.42;88.76
141;BME280;65;48.778;9.160;2023-04-27T02:09:35;98606.50;;;7.41;89.15
141;BME280;65;48.778;9.160;2023-04-27T02:12:21;98612.66;;;7.40;89.15
141;BME280;65;48.778;9.160;2023-04-27T02:15:07;98616.94;;;7.43;89.04
141;BME280;65;48.778;9.160;2023-04-27T02:17:53;98610.41;;;7.51;89.62
141;BME280;65;48.778;9.160;2023-04-27T02:20:38;98615.56;;;7.54;89.81
141;BME280;65;48.778;9.160;2023-04-27T02:23:24;98614.59;;;7.57;90.76
141;BME280;65;48.778;9.160;2023-04-27T02:26:17;98619.06;;;7.55;91.65
141;BME280;65;48.778;9.160;2023-04-27T02:29:03;98619.13;;;7.53;92.42
141;BME280;65;48.778;9.160;2023-04-27T02:31:49;98624.50;;;7.50;92.65
141;BME280;65;48.778;9.160;2023-04-27T02:34:35;98616.66;;;7.49;92.00
141;BME280;65;48.778;9.160;2023-04-27T02:37:20;98620.69;;;7.57;91.87
141;BME280;65;48.778;9.160;2023-04-27T02:40:07;98628.19;;;7.67;89.36
141;BME280;65;48.778;9.160;2023-04-27T02:42:53;98629.63;;;7.74;87.97
141;BME280;65;48.778;9.160;2023-04-27T02:45:38;98632.97;;;7.77;88.47
141;BME280;65;48.778;9.160;2023-04-27T02:48:24;98633.81;;;7.78;87.87
141;BME280;65;48.778;9.160;2023-04-27T02:51:10;98629.97;;;7.85;87.00
141;BME280;65;48.778;9.160;2023-04-27T02:53:55;98629.97;;;7.85;87.07
141;BME280;65;48.778;9.160;2023-04-27T02:56:41;98633.69;;;7.81;90.23
141;BME280;65;48.778;9.160;2023-04-27T02:59:27;98629.41;;;7.78;89.93
141;BME280;65;48.778;9.160;2023-04-27T03:02:43;98636.25;;;7.82;89.69
141;BME280;65;48.778;9.160;2023-04-27T03:05:29;98634.66;;;7.78;88.93
141;BME280;65;48.778;9.160;2023-04-27T03:08:16;98631.41;;;7.73;89.14
141;BME280;65;48.778;9.160;2023-04-27T03:11:01;98633.38;;;7.68;89.20
141;BME280;65;48.778;9.160;2023-04-27T03:13:47;98631.72;;;7.66;88.10
141;BME280;65;48.778;9.160;2023-04-27T03:16:33;98624.75;;;7.65;87.79
141;BME280;65;48.778;9.160;2023-04-27T03:19:19;98628.97;;;7.69;89.72
141;BME280;65;48.778;9.160;2023-04-27T03:22:05;98627.31;;;7.66;89.05
141;BME280;65;48.778;9.160;2023-04-27T03:24:50;98625.22;;;7.74;88.04
141;BME280;65;48.778;9.160;2023-04-27T03:27:36;98627.69;;;7.77;86.90
141;BME280;65;48.778;9.160;2023-04-27T03:30:22;98630.97;;;7.82;87.12
141;BME280;65;48.778;9.160;2023-04-27T03:33:08;98624.00;;;7.81;87.53
141;BME280;65;48.778;9.160;2023-04-27T03:35:55;98629.13;;;7.84;86.79
141;BME280;65;48.778;9.160;2023-04-27T03:38:41;98631.56;;;7.89;86.30
141;BME280;65;48.778;9.160;2023-04-27T03:41:27;98634.31;;;7.86;83.63
141;BME280;65;48.778;9.160;2023-04-27T03:44:12;98629.00;;;7.87;83.92
141;BME280;65;48.778;9.160;2023-04-27T03:46:58;98631.56;;;7.89;85.14
141;BME280;65;48.778;9.160;2023-04-27T03:49:44;98631.56;;;7.89;86.25
141;BME280;65;48.778;9.160;2023-04-27T03:52:30;98637.75;;;7.88;87.67
141;BME280;65;48.778;9.160;2023-04-27T03:55:16;98632.53;;;7.86;87.45
141;BME280;65;48.778;9.160;2023-04-27T03:58:02;98636.16;;;7.84;90.71
141;BME280;65;48.778;9.160;2023-04-27T04:00:47;98637.22;;;7.80;90.36
141;BME280;65;48.778;9.160;2023-04-27T04:03:33;98634.81;;;7.75;91.41
141;BME280;65;48.778;9.160;2023-04-27T04:06:19;98632.31;;;7.72;91.83
141;BME280;65;48.778;9.160;2023-04-27T04:09:08;98641.63;;;7.79;92.09
141;BME280;65;48.778;9.160;2023-04-27T04:11:53;98636.81;;;7.89;91.31
141;BME280;65;48.778;9.160;2023-04-27T04:14:40;98638.44;;;7.91;91.01
141;BME280;65;48.778;9.160;2023-04-27T04:17:25;98643.50;;;7.96;89.68
141;BME280;65;48.778;9.160;2023-04-27T04:20:12;98637.38;;;7.96;90.02
141;BME280;65;48.778;9.160;2023-04-27T04:22:58;98633.06;;;7.94;89.39
141;BME280;65;48.778;9.160;2023-04-27T04:25:44;98632.25;;;7.92;88.93
141;BME280;65;48.778;9.160;2023-04-27T04:28:32;98639.25;;;7.93;90.12
141;BME280;65;48.778;9.160;2023-04-27T04:31:18;98651.75;;;7.88;90.64
141;BME280;65;48.778;9.160;2023-04-27T04:34:05;98653.38;;;7.91;89.84
141;BME280;65;48.778;9.160;2023-04-27T04:36:53;98652.31;;;7.95;89.16
141;BME280;65;48.778;9.160;2023-04-27T04:39:40;98653.91;;;7.99;89.03
141;BME280;65;48.778;9.160;2023-04-27T04:42:26;98656.38;;;8.02;89.47
141;BME280;65;48.778;9.160;2023-04-27T04:45:12;98651.97;;;8.03;88.71
141;BME280;65;48.778;9.160;2023-04-27T04:47:58;98645.78;;;8.04;90.08
141;BME280;65;48.778;9.160;2023-04-27T04:50:45;98650.13;;;8.05;90.42
141;BME280;65;48.778;9.160;2023-04-27T04:53:31;98651.69;;;8.09;90.10
141;BME280;65;48.778;9.160;2023-04-27T04:56:16;98648.94;;;8.12;88.16
141;BME280;65;48.778;9.160;2023-04-27T04:59:02;98646.69;;;8.23;89.78
141;BME280;65;48.778;9.160;2023-04-27T05:01:48;98655.22;;;8.28;89.15
141;BME280;65;48.778;9.160;2023-04-27T05:04:34;98654.97;;;8.34;88.68
141;BME280;65;48.778;9.160;2023-04-27T05:07:20;98659.78;;;8.43;88.01
141;BME280;65;48.778;9.160;2023-04-27T05:10:06;98657.91;;;8.64;86.26
141;BME280;65;48.778;9.160;2023-04-27T05:12:51;98659.69;;;8.64;85.33
141;BME280;65;48.778;9.160;2023-04-27T05:15:37;98656.03;;;8.68;88.01
141;BME280;65;48.778;9.160;2023-04-27T05:18:23;98648.16;;;8.85;84.19
141;BME280;65;48.778;9.160;2023-04-27T05:21:13;98650.47;;;8.91;84.56
141;BME280;65;48.778;9.160;2023-04-27T05:23:59;98652.59;;;9.02;83.81
141;BME280;65;48.778;9.160;2023-04-27T05:26:45;98652.44;;;9.22;81.56
141;BME280;65;48.778;9.160;2023-04-27T05:29:31;98659.06;;;9.31;85.41
141;BME280;65;48.778;9.160;2023-04-27T05:32:17;98664.16;;;9.51;77.57
141;BME280;65;48.778;9.160;2023-04-27T05:35:03;98670.06;;;9.56;78.12
141;BME280;65;48.778;9.160;2023-04-27T05:37:49;98664.66;;;9.42;78.02
141;BME280;65;48.778;9.160;2023-04-27T05:40:35;98676.50;;;9.68;75.18
141;BME280;65;48.778;9.160;2023-04-27T05:43:22;98671.56;;;9.95;72.49
141;BME280;65;48.778;9.160;2023-04-27T05:46:07;98673.81;;;10.02;72.77
141;BME280;65;48.778;9.160;2023-04-27T05:48:53;98662.41;;;10.18;71.95
141;BME280;65;48.778;9.160;2023-04-27T05:51:39;98664.28;;;10.15;72.20
141;BME280;65;48.778;9.160;2023-04-27T05:54:25;98679.00;;;10.04;74.67
141;BME280;65;48.778;9.160;2023-04-27T05:57:11;98676.19;;;10.40;69.48
141;BME280;65;48.778;9.160;2023-04-27T05:59:57;98674.56;;;10.37;71.69
141;BME280;65;48.778;9.160;2023-04-27T06:02:43;98675.03;;;10.45;75.37
141;BME280;65;48.778;9.160;2023-04-27T06:05:29;98681.56;;;10.38;74.44
141;BME280;65;48.778;9.160;2023-04-27T06:08:15;98674.78;;;10.66;72.63
141;BME280;65;48.778;9.160;2023-04-27T06:11:01;98679.63;;;10.89;69.54
141;BME280;65;48.778;9.160;2023-04-27T06:13:47;98684.47;;;11.13;69.13
141;BME280;65;48.778;9.160;2023-04-27T06:16:37;98688.69;;;10.54;74.79
141;BME280;65;48.778;9.160;2023-04-27T06:19:22;98683.81;;;10.93;74.08
141;BME280;65;48.778;9.160;2023-04-27T06:22:09;98685.50;;;11.40;68.30
141;BME280;65;48.778;9.160;2023-04-27T06:24:56;98688.75;;;11.45;69.07
141;BME280;65;48.778;9.160;2023-04-27T06:27:41;98695.44;;;11.66;71.81
141;BME280;65;48.778;9.160;2023-04-27T06:30:27;98692.81;;;11.51;68.61
141;BME280;65;48.778;9.160;2023-04-27T06:33:13;98695.38;;;11.22;69.40
141;BME280;65;48.778;9.160;2023-04-27T06:35:59;98695.19;;;11.55;69.00
141;BME280;65;48.778;9.160;2023-04-27T06:38:45;98692.09;;;11.93;65.72
141;BME280;65;48.778;9.160;2023-04-27T06:41:31;98698.47;;;11.45;65.29
141;BME280;65;48.778;9.160;2023-04-27T06:44:18;98699.09;;;11.80;66.49
141;BME280;65;48.778;9.160;2023-04-27T06:47:04;98699.81;;;11.22;67.48
141;BME280;65;48.778;9.160;2023-04-27T06:49:49;98699.03;;;12.10;64.33
141;BME280;65;48.778;9.160;2023-04-27T06:52:35;98697.97;;;12.69;64.58
141;BME280;65;48.778;9.160;2023-04-27T06:55:21;98697.47;;;13.32;60.06
141;BME280;65;48.778;9.160;2023-04-27T06:58:08;98693.69;;;13.61;58.66
141;BME280;65;48.778;9.160;2023-04-27T07:00:54;98712.53;;;13.84;57.71
141;BME280;65;48.778;9.160;2023-04-27T07:03:39;98700.47;;;14.56;55.85
141;BME280;65;48.778;9.160;2023-04-27T07:06:25;98711.78;;;13.82;57.84
141;BME280;65;48.778;9.160;2023-04-27T07:09:13;98702.09;;;14.82;55.50
141;BME280;65;48.778;9.160;2023-04-27T07:11:58;98693.50;;;16.99;51.58
141;BME280;65;48.778;9.160;2023-04-27T07:14:45;98695.94;;;18.70;43.51
141;BME280;65;48.778;9.160;2023-04-27T07:17:31;98693.25;;;20.16;39.07
141;BME280;65;48.778;9.160;2023-04-27T07:20:17;98689.84;;;21.53;38.62
141;BME280;65;48.778;9.160;2023-04-27T07:23:03;98685.00;;;22.70;39.47
141;BME280;65;48.778;9.160;2023-04-27T07:25:49;98683.97;;;23.63;33.46
141;BME280;65;48.778;9.160;2023-04-27T07:28:35;98690.81;;;21.34;36.22
141;BME280;65;48.778;9.160;2023-04-27T07:31:20;98693.63;;;20.78;38.94
141;BME280;65;48.778;9.160;2023-04-27T07:34:06;98682.69;;;21.16;34.44
141;BME280;65;48.778;9.160;2023-04-27T07:36:52;98680.16;;;23.16;31.41
141;BME280;65;48.778;9.160;2023-04-27T07:39:38;98680.06;;;22.57;34.86
141;BME280;65;48.778;9.160;2023-04-27T07:42:24;98673.69;;;21.08;35.54
141;BME280;65;48.778;9.160;2023-04-27T07:45:10;98678.72;;;20.66;37.06
141;BME280;65;48.778;9.160;2023-04-27T07:47:57;98674.88;;;20.31;36.92
141;BME280;65;48.778;9.160;2023-04-27T07:50:45;98674.63;;;20.15;37.01
141;BME280;65;48.778;9.160;2023-04-27T07:53:34;98680.84;;;23.26;33.07
141;BME280;65;48.778;9.160;2023-04-27T07:56:20;98670.00;;;23.84;33.88
141;BME280;65;48.778;9.160;2023-04-27T07:59:06;98682.75;;;21.52;34.61
141;BME280;65;48.778;9.160;2023-04-27T08:01:52;98673.19;;;23.05;36.62
141;BME280;65;48.778;9.160;2023-04-27T08:04:37;98676.75;;;23.80;31.21
141;BME280;65;48.778;9.160;2023-04-27T08:07:24;98684.16;;;24.35;31.04
141;BME280;65;48.778;9.160;2023-04-27T08:10:10;98663.84;;;24.55;27.95
141;BME280;65;48.778;9.160;2023-04-27T08:12:56;98669.22;;;23.33;32.90
141;BME280;65;48.778;9.160;2023-04-27T08:15:42;98670.66;;;23.86;32.01
141;BME280;65;48.778;9.160;2023-04-27T08:18:27;98662.97;;;24.63;31.17
141;BME280;65;48.778;9.160;2023-04-27T08:21:13;98657.84;;;25.46;28.45
141;BME280;65;48.778;9.160;2023-04-27T08:23:59;98652.88;;;24.96;28.54
141;BME280;65;48.778;9.160;2023-04-27T08:26:45;98651.25;;;23.66;33.17
141;BME280;65;48.778;9.160;2023-04-27T08:29:31;98656.97;;;23.63;29.41
141;BME280;65;48.778;9.160;2023-04-27T08:32:17;98654.41;;;23.46;30.14
141;BME280;65;48.778;9.160;2023-04-27T08:35:02;98643.81;;;24.01;29.64
141;BME280;65;48.778;9.160;2023-04-27T08:37:48;98647.25;;;24.58;28.09
141;BME280;65;48.778;9.160;2023-04-27T08:40:35;98650.22;;;24.08;27.08
141;BME280;65;48.778;9.160;2023-04-27T08:43:22;98635.06;;;25.10;26.24
141;BME280;65;48.778;9.160;2023-04-27T08:46:08;98638.38;;;25.20;28.49
141;BME280;65;48.778;9.160;2023-04-27T08:48:54;98640.97;;;23.86;28.07
141;BME280;65;48.778;9.160;2023-04-27T08:51:40;98637.75;;;23.99;32.33
141;BME280;65;48.778;9.160;2023-04-27T08:54:26;98632.63;;;26.73;26.01
141;BME280;65;48.778;9.160;2023-04-27T08:57:13;98637.16;;;25.76;28.48
141;BME280;65;48.778;9.160;2023-04-27T08:59:59;98632.22;;;27.21;26.68
141;BME280;65;48.778;9.160;2023-04-27T09:02:46;98636.47;;;25.97;25.16
141;BME280;65;48.778;9.160;2023-04-27T09:05:32;98640.03;;;24.26;29.40
141;BME280;65;48.778;9.160;2023-04-27T09:08:18;98635.25;;;25.08;28.76
141;BME280;65;48.778;9.160;2023-04-27T09:11:04;98638.31;;;22.61;29.28
141;BME280;65;48.778;9.160;2023-04-27T09:13:50;98635.19;;;22.14;30.73
141;BME280;65;48.778;9.160;2023-04-27T09:16:36;98636.91;;;23.58;33.37
141;BME280;65;48.778;9.160;2023-04-27T09:19:26;98639.75;;;24.77;28.10
141;BME280;65;48.778;9.160;2023-04-27T09:22:12;98648.38;;;24.72;28.69
141;BME280;65;48.778;9.160;2023-04-27T09:24:59;98654.91;;;24.22;28.58
141;BME280;65;48.778;9.160;2023-04-27T09:27:45;98644.19;;;24.70;29.65
141;BME280;65;48.778;9.160;2023-04-27T09:30:31;98643.00;;;23.84;28.44
141;BME280;65;48.778;9.160;2023-04-27T09:33:25;98642.06;;;25.96;27.99
141;BME280;65;48.778;9.160;2023-04-27T09:36:10;98642.13;;;24.33;32.40
141;BME280;65;48.778;9.160;2023-04-27T09:38:56;98633.63;;;25.22;26.60
141;BME280;65;48.778;9.160;2023-04-27T09:41:43;98638.56;;;25.18;26.05
141;BME280;65;48.778;9.160;2023-04-27T09:44:31;98637.22;;;24.36;27.08
141;BME280;65;48.778;9.160;2023-04-27T09:47:17;98637.47;;;25.96;26.21
141;BME280;65;48.778;9.160;2023-04-27T09:50:04;98636.31;;;25.76;26.47
141;BME280;65;48.778;9.160;2023-04-27T09:52:50;98633.53;;;25.84;28.26
141;BME280;65;48.778;9.160;2023-04-27T10:01:53;98620.59;;;25.26;26.77
141;BME280;65;48.778;9.160;2023-04-27T10:05:07;98617.66;;;26.48;24.75
141;BME280;65;48.778;9.160;2023-04-27T10:07:56;98623.28;;;25.03;28.39
141;BME280;65;48.778;9.160;2023-04-27T10:10:47;98629.47;;;23.68;29.88
141;BME280;65;48.778;9.160;2023-04-27T10:13:33;98633.88;;;25.12;26.75
141;BME280;65;48.778;9.160;2023-04-27T10:16:19;98625.06;;;26.54;24.67
141;BME280;65;48.778;9.160;2023-04-27T10:19:08;98631.75;;;26.14;26.34
141;BME280;65;48.778;9.160;2023-04-27T10:21:55;98623.94;;;26.48;26.24
141;BME280;65;48.778;9.160;2023-04-27T10:24:59;98628.53;;;28.83;24.55
141;BME280;65;48.778;9.160;2023-04-27T10:30:38;98625.84;;;29.44;21.68
141;BME280;65;48.778;9.160;2023-04-27T10:33:28;98629.75;;;29.21;23.93
141;BME280;65;48.778;9.160;2023-04-27T10:36:14;98626.31;;;29.67;22.30
141;BME280;65;48.778;9.160;2023-04-27T10:39:00;98622.97;;;29.98;22.26
141;BME280;65;48.778;9.160;2023-04-27T10:41:54;98624.28;;;30.09;20.92
141;BME280;65;48.778;9.160;2023-04-27T10:44:40;98614.16;;;28.54;21.68
141;BME280;65;48.778;9.160;2023-04-27T10:47:40;98610.69;;;28.74;22.61
141;BME280;65;48.778;9.160;2023-04-27T10:50:27;98605.25;;;27.19;25.00
141;BME280;65;48.778;9.160;2023-04-27T10:53:13;98592.13;;;28.84;22.57
141;BME280;65;48.778;9.160;2023-04-27T10:56:00;98590.84;;;28.80;25.54
141;BME280;65;48.778;9.160;2023-04-27T10:58:45;98591.88;;;28.79;21.79
141;BME280;65;48.778;9.160;2023-04-27T11:01:31;98592.88;;;28.30;23.34
141;BME280;65;48.778;9.160;2023-04-27T11:04:17;98600.63;;;26.84;27.48
141;BME280;65;48.778;9.160;2023-04-27T11:07:03;98595.66;;;26.87;26.03
141;BME280;65;48.778;9.160;2023-04-27T11:09:49;98601.53;;;27.05;25.74
141;BME280;65;48.778;9.160;2023-04-27T11:12:35;98603.97;;;25.06;25.17
141;BME280;65;48.778;9.160;2023-04-27T11:15:21;98597.50;;;20.99;30.62
141;BME280;65;48.778;9.160;2023-04-27T11:18:07;98587.69;;;22.81;30.42
141;BME280;65;48.778;9.160;2023-04-27T11:20:54;98591.34;;;23.39;29.66
141;BME280;65;48.778;9.160;2023-04-27T11:23:50;98588.59;;;25.29;26.42
141;BME280;65;48.778;9.160;2023-04-27T11:26:35;98592.53;;;24.96;29.25
141;BME280;65;48.778;9.160;2023-04-27T11:29:21;98584.47;;;26.46;25.23
141;BME280;65;48.778;9.160;2023-04-27T11:32:07;98579.06;;;26.16;23.92
141;BME280;65;48.778;9.160;2023-04-27T11:34:53;98578.44;;;25.31;29.82
141;BME280;65;48.778;9.160;2023-04-27T11:37:39;98580.59;;;26.99;29.15
141;BME280;65;48.778;9.160;2023-04-27T11:40:25;98580.00;;;27.61;25.14
141;BME280;65;48.778;9.160;2023-04-27T11:43:13;98593.13;;;27.79;23.76
141;BME280;65;48.778;9.160;2023-04-27T11:46:03;98596.84;;;25.36;28.26
141;BME280;65;48.778;9.160;2023-04-27T11:48:50;98596.28;;;25.40;27.20
141;BME280;65;48.778;9.160;2023-04-27T11:51:36;98603.50;;;25.25;27.67
141;BME280;65;48.778;9.160;2023-04-27T11:54:27;98595.59;;;25.46;29.13
141;BME280;65;48.778;9.160;2023-04-27T11:57:13;98587.66;;;24.52;27.65
141;BME280;65;48.778;9.160;2023-04-27T12:00:00;98587.38;;;24.39;28.02
141;BME280;65;48.778;9.160;2023-04-27T12:02:46;98587.56;;;24.37;27.84
141;BME280;65;48.778;9.160;2023-04-27T12:05:33;98582.59;;;22.78;30.34
141;BME280;65;48.778;9.160;2023-04-27T12:08:19;98573.00;;;23.75;29.30
141;BME280;65;48.778;9.160;2023-04-27T12:11:05;98573.16;;;22.66;29.45
141;BME280;65;48.778;9.160;2023-04-27T12:13:51;98576.53;;;20.30;33.28
141;BME280;65;48.778;9.160;2023-04-27T12:16:37;98575.63;;;19.55;39.30
141;BME280;65;48.778;9.160;2023-04-27T12:19:32;98569.47;;;21.20;33.11
141;BME280;65;48.778;9.160;2023-04-27T12:22:17;98569.28;;;22.77;31.55
141;BME280;65;48.778;9.160;2023-04-27T12:25:03;98561.50;;;23.81;31.15
141;BME280;65;48.778;9.160;2023-04-27T12:27:49;98559.97;;;23.38;32.27
141;BME280;65;48.778;9.160;2023-04-27T12:30:35;98560.78;;;23.95;30.23
141;BME280;65;48.778;9.160;2023-04-27T12:33:21;98562.19;;;23.75;28.46
141;BME280;65;48.778;9.160;2023-04-27T12:36:07;98562.72;;;24.73;27.15
141;BME280;65;48.778;9.160;2023-04-27T12:39:14;98562.91;;;24.16;28.37
141;BME280;65;48.778;9.160;2023-04-27T12:42:01;98549.69;;;23.82;28.00
141;BME280;65;48.778;9.160;2023-04-27T12:44:48;98555.44;;;23.14;27.87
141;BME280;65;48.778;9.160;2023-04-27T12:47:33;98557.16;;;22.64;30.12
141;BME280;65;48.778;9.160;2023-04-27T12:50:19;98556.66;;;22.69;29.27
141;BME280;65;48.778;9.160;2023-04-27T12:53:05;98540.53;;;22.35;31.67
141;BME280;65;48.778;9.160;2023-04-27T12:55:51;98549.75;;;21.46;32.87
141;BME280;65;48.778;9.160;2023-04-27T12:58:37;98548.06;;;21.10;34.60
141;BME280;65;48.778;9.160;2023-04-27T13:01:25;98543.50;;;20.20;35.76
141;BME280;65;48.778;9.160;2023-04-27T13:04:17;98538.16;;;19.83;41.34
141;BME280;65;48.778;9.160;2023-04-27T13:07:04;98547.84;;;19.94;36.57
141;BME280;65;48.778;9.160;2023-04-27T13:09:50;98543.72;;;19.72;34.25
141;BME280;65;48.778;9.160;2023-04-27T13:12:36;98541.06;;;19.99;34.16
141;BME280;65;48.778;9.160;2023-04-27T13:15:22;98542.00;;;19.61;35.09
141;BME280;65;48.778;9.160;2023-04-27T13:18:08;98539.88;;;20.11;33.99
141;BME280;65;48.778;9.160;2023-04-27T13:20:54;98544.25;;;20.49;33.81
141;BME280;65;48.778;9.160;2023-04-27T13:23:40;98533.59;;;20.58;33.92
141;BME280;65;48.778;9.160;2023-04-27T13:26:26;98539.88;;;20.48;34.68
141;BME280;65;48.778;9.160;2023-04-27T13:29:12;98538.44;;;20.17;35.13
141;BME280;65;48.778;9.160;2023-04-27T13:31:58;98532.56;;;20.04;34.75
141;BME280;65;48.778;9.160;2023-04-27T13:34:43;98533.31;;;18.82;36.64
141;BME280;65;48.778;9.160;2023-04-27T13:37:30;98529.50;;;18.75;37.23
141;BME280;65;48.778;9.160;2023-04-27T13:40:16;98532.03;;;18.26;36.85
141;BME280;65;48.778;9.160;2023-04-27T13:43:02;98533.03;;;18.94;37.01
141;BME280;65;48.778;9.160;2023-04-27T13:45:47;98524.56;;;19.28;36.20
141;BME280;65;48.778;9.160;2023-04-27T13:48:35;98517.50;;;18.98;37.12
141;BME280;65;48.778;9.160;2023-04-27T13:51:20;98521.88;;;18.99;38.90
141;BME280;65;48.778;9.160;2023-04-27T13:54:06;98518.34;;;19.27;39.47
141;BME280;65;48.778;9.160;2023-04-27T13:56:52;98510.84;;;19.41;36.02
141;BME280;65;48.778;9.160;2023-04-27T13:59:38;98518.34;;;19.27;39.69
141;BME280;65;48.778;9.160;2023-04-27T14:02:23;98528.09;;;18.90;37.78
141;BME280;65;48.778;9.160;2023-04-27T14:05:09;98526.72;;;18.46;37.97
141;BME280;65;48.778;9.160;2023-04-27T14:07:55;98517.84;;;18.45;37.72
141;BME280;65;48.778;9.160;2023-04-27T14:10:43;98524.41;;;18.62;38.75
141;BME280;65;48.778;9.160;2023-04-27T14:13:28;98516.94;;;19.04;36.61
141;BME280;65;48.778;9.160;2023-04-27T14:16:14;98517.34;;;19.38;35.46
141;BME280;65;48.778;9.160;2023-04-27T14:19:00;98517.53;;;18.88;36.08
141;BME280;65;48.778;9.160;2023-04-27T14:21:48;98511.84;;;19.40;35.49
141;BME280;65;48.778;9.160;2023-04-27T14:24:34;98508.34;;;19.30;37.95
141;BME280;65;48.778;9.160;2023-04-27T14:27:19;98510.03;;;19.21;35.79
141;BME280;65;48.778;9.160;2023-04-27T14:30:06;98513.53;;;19.41;36.49
141;BME280;65;48.778;9.160;2023-04-27T14:32:52;98512.72;;;19.21;37.55
141;BME280;65;48.778;9.160;2023-04-27T14:35:38;98518.34;;;19.27;36.65
141;BME280;65;48.778;9.160;2023-04-27T14:38:24;98511.00;;;19.39;35.85
141;BME280;65;48.778;9.160;2023-04-27T14:41:10;98513.78;;;19.47;36.36
141;BME280;65;48.778;9.160;2023-04-27T14:43:55;98513.22;;;19.63;41.68
141;BME280;65;48.778;9.160;2023-04-27T14:46:41;98519.19;;;19.28;38.91
141;BME280;65;48.778;9.160;2023-04-27T14:49:27;98520.34;;;19.25;41.46
141;BME280;65;48.778;9.160;2023-04-27T14:52:12;98519.78;;;19.12;42.43
141;BME280;65;48.778;9.160;2023-04-27T14:54:59;98516.66;;;18.69;42.14
141;BME280;65;48.778;9.160;2023-04-27T14:57:45;98512.25;;;18.58;40.44
141;BME280;65;48.778;9.160;2023-04-27T15:00:30;98510.03;;;18.92;39.01
141;BME280;65;48.778;9.160;2023-04-27T15:03:16;98514.97;;;18.96;38.95
141;BME280;65;48.778;9.160;2023-04-27T15:06:02;98520.78;;;19.11;36.48
141;BME280;65;48.778;9.160;2023-04-27T15:08:49;98522.19;;;19.15;37.74
141;BME280;65;48.778;9.160;2023-04-27T15:11:35;98514.28;;;19.23;36.26
141;BME280;65;48.778;9.160;2023-04-27T15:14:21;98515.94;;;19.34;36.59
141;BME280;65;48.778;9.160;2023-04-27T15:17:06;98513.78;;;19.57;37.49
141;BME280;65;48.778;9.160;2023-04-27T15:19:53;98512.72;;;19.21;40.99
141;BME280;65;48.778;9.160;2023-04-27T15:22:38;98520.06;;;19.19;37.46
141;BME280;65;48.778;9.160;2023-04-27T15:25:24;98506.09;;;19.15;37.03
141;BME280;65;48.778;9.160;2023-04-27T15:28:10;98502.88;;;18.83;39.10
141;BME280;65;48.778;9.160;2023-04-27T15:30:56;98504.09;;;18.50;42.70
141;BME280;65;48.778;9.160;2023-04-27T15:33:41;98497.44;;;18.44;41.75
141;BME280;65;48.778;9.160;2023-04-27T15:36:27;98500.81;;;18.46;40.86
141;BME280;65;48.778;9.160;2023-04-27T15:39:13;98495.47;;;18.46;39.68
141;BME280;65;48.778;9.160;2023-04-27T15:41:59;98498.13;;;18.46;40.95
141;BME280;65;48.778;9.160;2023-04-27T15:44:45;98498.25;;;18.35;45.74
141;BME280;65;48.778;9.160;2023-04-27T15:47:31;98498.94;;;18.18;40.62
141;BME280;65;48.778;9.160;2023-04-27T15:50:18;98498.44;;;17.93;41.93
141;BME280;65;48.778;9.160;2023-04-27T15:53:04;98492.00;;;17.75;40.46
141;BME280;65;48.778;9.160;2023-04-27T15:55:49;98496.41;;;17.55;44.37
141;BME280;65;48.778;9.160;2023-04-27T15:58:35;98483.19;;;17.33;47.32
141;BME280;65;48.778;9.160;2023-04-27T16:01:21;98480.72;;;17.20;44.14